ADDS METAR Data INFO
IDs: Format: Raw Decoded Include TAF

Data at: 0858 UTC 19 Jun 2018

KMQI 190835Z AUTO 28004KT 10SM CLR 25/24 A2990 RMK AO2 T02500240
KMQI 190815Z AUTO 28004KT 10SM CLR 25/24 A2991 RMK AO2 T02500240
KMQI 190755Z AUTO 27004KT 10SM CLR 25/24 A2990 RMK AO2 T02520242
KMQI 190735Z AUTO 27003KT 10SM CLR 25/24 A2991 RMK AO2 T02530242
KMQI 190715Z AUTO 26004KT 10SM CLR 25/24 A2991 RMK AO2 T02540241
KMQI 190655Z AUTO 29003KT 10SM CLR 25/24 A2992 RMK AO2 T02530240
KMQI 190635Z AUTO 28003KT 10SM CLR 25/24 A2992 RMK AO2 T02530241
KMQI 190615Z AUTO 28005KT 10SM CLR 25/24 A2992 RMK AO2 T02520240
KMQI 190555Z AUTO 29005KT 10SM CLR 25/24 A2992 RMK AO2 T02520240 10280 20252 402980238
KMQI 190535Z AUTO 28005KT 10SM CLR 25/24 A2993 RMK AO2 T02530240
KMQI 190515Z AUTO 28007KT 10SM CLR 25/24 A2994 RMK AO2 T02530239
KMQI 190455Z AUTO 27006KT 10SM CLR 26/24 A2994 RMK AO2 T02550238
KMQI 190435Z AUTO 26007KT 10SM CLR 26/24 A2995 RMK AO2 T02550237
KMQI 190415Z AUTO 26007KT 10SM CLR 26/24 A2995 RMK AO2 T02570235
KMQI 190355Z AUTO 25007KT 10SM CLR 26/23 A2995 RMK AO2 T02600233
KMQI 190335Z AUTO 25006KT 10SM CLR 26/23 A2995 RMK AO2 T02600231
KMQI 190315Z AUTO 25006KT 10SM CLR 26/23 A2995 RMK AO2 T02630232
KMQI 190255Z AUTO 25008KT 10SM CLR 27/23 A2996 RMK AO2 T02660232
KMQI 190235Z AUTO 26004KT 10SM CLR 27/23 A2997 RMK AO2 T02680233
KMQI 190215Z AUTO 24004KT 10SM CLR 27/23 A2997 RMK AO2 T02700231
KMQI 190155Z AUTO 24006KT 10SM CLR 27/23 A2996 RMK AO2 T02720233
KMQI 190135Z AUTO 24005KT 10SM CLR 28/23 A2995 RMK AO2 T02750234
KMQI 190115Z AUTO 25007KT 10SM CLR 28/24 A2995 RMK AO2 T02770240
KMQI 190055Z AUTO 24008KT 10SM CLR 28/25 A2995 RMK AO2 T02780253
KMQI 190035Z AUTO 23005KT 10SM CLR 27/25 A2995 RMK AO2 T02720245
KMQI 190015Z AUTO 18004KT 10SM CLR 28/25 A2996 RMK AO2 T02750245
KMQI 182355Z AUTO 18004KT 10SM CLR 28/25 A2996 RMK AO2 T02800245 10298 20277
KMQI 182335Z AUTO 00000KT 10SM CLR 28/25 A2996 RMK AO2 T02800245
KMQI 182315Z AUTO 00000KT 10SM BKN038 SCT048 28/25 A2997 RMK AO2 T02800248
KMQI 182255Z AUTO 17003KT 10SM BKN040 OVC048 28/25 A2998 RMK AO2 T02780248
KMQI 182235Z AUTO 19005KT 10SM BKN042 28/24 A2998 RMK AO2 T02830243
KMQI 182215Z AUTO 21006KT 10SM CLR 29/24 A2998 RMK AO2 T02890236
KMQI 182155Z AUTO 19003KT 10SM CLR 29/24 A2997 RMK AO2 T02900235
KMQI 182135Z AUTO 20006KT 10SM CLR 29/24 A2997 RMK AO2 T02860237
KMQI 182115Z AUTO 21006KT 10SM CLR 29/24 A2997 RMK AO2 T02860237
KMQI 182055Z AUTO 20006KT 10SM CLR 28/24 A2999 RMK AO2 T02800241
KMQI 182035Z AUTO 19008KT 10SM CLR 28/24 A2999 RMK AO2 T02790241
KMQI 182015Z AUTO 21013KT 10SM CLR 28/24 A2999 RMK AO2 T02820241
KMQI 181955Z AUTO 20013G16KT 10SM CLR 30/24 A3000 RMK AO2 T02960238
KMQI 181935Z AUTO 20010KT 10SM CLR 29/24 A3000 RMK AO2 T02940240
KMQI 181915Z AUTO 21009KT 10SM CLR 29/24 A3001 RMK AO2 T02910241
KMQI 181855Z AUTO 21007KT 10SM SCT018 SCT022 29/24 A3003 RMK AO2 T02900237
KMQI 181835Z AUTO 22006KT 10SM BKN018 BKN024 29/24 A3003 RMK AO2 T02870241
KMQI 181815Z AUTO 23004KT 10SM OVC018 29/24 A3004 RMK AO2 T02860240
KMQI 181755Z AUTO 00000KT 10SM BKN016 BKN027 BKN039 28/24 A3005 RMK AO2 T02770237 10284 20257
KMQI 181735Z AUTO 01003KT 10SM SCT016 BKN021 BKN027 28/24 A3005 RMK AO2 T02800238
KMQI 181715Z AUTO 03005KT 10SM OVC021 28/24 A3005 RMK AO2 T02780237
KMQI 181655Z AUTO 24003KT 10SM BKN025 OVC030 28/23 A3005 RMK AO2 T02790230
KMQI 181635Z AUTO 00000KT 10SM OVC029 28/23 A3005 RMK AO2 T02780231
KMQI 181615Z AUTO 27003KT 10SM OVC027 28/23 A3006 RMK AO2 T02750230
KMQI 181555Z AUTO 27003KT 10SM OVC025 28/23 A3006 RMK AO2 T02760231
KMQI 181535Z AUTO 33004KT 10SM OVC023 27/23 A3006 RMK AO2 T02710233
KMQI 181515Z AUTO 31004KT 10SM OVC019 27/23 A3006 RMK AO2 T02680231
KMQI 181455Z AUTO 32005KT 10SM OVC021 27/23 A3006 RMK AO2 T02660230
KMQI 181435Z AUTO 30004KT 10SM OVC021 27/23 A3006 RMK AO2 T02670230
KMQI 181415Z AUTO 32003KT 10SM OVC021 27/23 A3006 RMK AO2 T02670230
KMQI 181355Z AUTO 32006KT 10SM OVC019 27/23 A3006 RMK AO2 T02690231
KMQI 181335Z AUTO 27004KT 10SM OVC021 27/23 A3006 RMK AO2 T02680231
KMQI 181315Z AUTO 30006KT 10SM OVC023 27/23 A3006 RMK AO2 T02650230
KMQI 181235Z AUTO 29007KT 10SM SCT023 26/23 A3006 RMK AO2 T02630229
KMQI 181215Z AUTO 28006KT 10SM SCT110 26/23 A3007 RMK AO2 T02580226
KMQI 181155Z AUTO 27007KT 10SM BKN110 26/23 A3008 RMK AO2 T02560226 10256 20238
KMQI 181135Z AUTO 28005KT 10SM SCT120 25/23 A3008 RMK AO2 T02500225
KMQI 181115Z AUTO 25006KT 10SM CLR 25/23 A3007 RMK AO2 T02450225
KMQI 181055Z AUTO 27005KT 10SM SCT065 24/23 A3007 RMK AO2 T02410225
KMQI 181035Z AUTO 27006KT 10SM SCT065 24/22 A3007 RMK AO2 T02410222
KMQI 181015Z AUTO 25007KT 10SM CLR 24/22 A3007 RMK AO2 T02400223
KMQI 180955Z AUTO 25006KT 10SM CLR 24/22 A3006 RMK AO2 T02400223
KMQI 180935Z AUTO 24005KT 10SM SCT095 24/22 A3006 RMK AO2 T02400222
KMQI 180915Z AUTO 25005KT 10SM BKN095 24/22 A3006 RMK AO2 T02400221
KMQI 180855Z AUTO 26006KT 10SM SCT095 OVC110 24/22 A3006 RMK AO2 T02410219
KMQI 180835Z AUTO 27007KT 10SM BKN095 OVC110 24/22 A3006 RMK AO2 T02410216
KMQI 180815Z AUTO 27008KT 10SM BKN110 24/22 A3006 RMK AO2 T02400220
KMQI 180755Z AUTO 26009KT 10SM SCT110 24/22 A3006 RMK AO2 T02400219
KMQI 180735Z AUTO 25008KT 10SM SCT110 24/22 A3006 RMK AO2 T02410216
KMQI 180715Z AUTO 23009KT 10SM OVC120 24/22 A3004 RMK AO2 T02430220
KMQI 180655Z AUTO 24005KT 10SM OVC110 24/22 A3005 RMK AO2 T02430222
KMQI 180635Z AUTO 26005KT 10SM BKN100 OVC120 24/22 A3006 RMK AO2 T02420223
KMQI 180615Z AUTO 26007KT 10SM SCT090 OVC120 24/22 A3006 RMK AO2 T02410222
KMQI 180555Z AUTO 26008KT 10SM BKN120 24/23 A3006 RMK AO2 T02420225 10261 20242 403000232
KMQI 180535Z AUTO 25008KT 10SM OVC120 25/23 A3007 RMK AO2 T02450226
KMQI 180515Z AUTO 24008KT 10SM SCT090 OVC120 25/23 A3008 RMK AO2 T02470230
KMQI 180455Z AUTO 25007KT 10SM OVC090 25/23 A3009 RMK AO2 T02470229
KMQI 180435Z AUTO 24006KT 10SM SCT050 BKN090 OVC110 25/23 A3009 RMK AO2 T02500226
KMQI 180415Z AUTO 25007KT 10SM SCT029 BKN049 OVC110 25/23 A3009 RMK AO2 T02520226
KMQI 180355Z AUTO 21005KT 10SM OVC110 25/22 A3009 RMK AO2 T02520219
KMQI 180335Z AUTO 21009KT 10SM SCT065 OVC100 26/22 A3009 RMK AO2 T02550217
KMQI 180315Z AUTO 23007KT 10SM SCT055 BKN100 26/22 A3008 RMK AO2 T02590216
KMQI 180255Z AUTO 19004KT 10SM SCT055 SCT070 BKN100 26/22 A3008 RMK AO2 T02550216
KMQI 180235Z AUTO 28006KT 10SM SCT015 SCT055 BKN100 25/22 A3009 RMK AO2 T02510221
KMQI 180215Z AUTO 25008KT 10SM SCT015 SCT030 BKN047 26/23 A3008 RMK AO2 T02550234
KMQI 180155Z AUTO 19005KT 10SM -RA SCT045 BKN100 25/23 A3008 RMK AO2 T02520231
KMQI 180135Z AUTO 20007KT 10SM BKN045 26/23 A3008 RMK AO2 T02550230
KMQI 180115Z AUTO 21007KT 10SM CLR 26/23 A3008 RMK AO2 T02560225
KMQI 180055Z AUTO 20006KT 10SM SCT060 26/22 A3007 RMK AO2 T02570220
KMQI 180035Z AUTO 25007KT 10SM SCT050 SCT060 26/22 A3006 RMK AO2 T02590221
KMQI 180015Z AUTO 23006KT 10SM CLR 26/23 A3005 RMK AO2 T02610226
KMQI 172355Z AUTO 24006KT 10SM CLR 26/23 A3006 RMK AO2 T02610230 10300 20261
KMQI 172335Z AUTO 22008KT 10SM SCT046 26/23 A3006 RMK AO2 T02640233
KMQI 172315Z AUTO 23010KT 10SM BKN046 27/23 A3006 RMK AO2 T02650230
KMQI 172255Z AUTO 23010KT 10SM SCT044 26/22 A3006 RMK AO2 T02640220
KMQI 172235Z AUTO 21009KT 10SM CLR 27/22 A3005 RMK AO2 T02660217
KMQI 172215Z AUTO 24011KT 10SM SCT039 27/22 A3005 RMK AO2 T02660220
KMQI 172155Z AUTO 23016G19KT 10SM SCT037 BKN043 27/23 A3005 RMK AO2 T02700230
KMQI 172135Z AUTO 22011KT 10SM CLR 27/23 A3006 RMK AO2 T02720230
KMQI 172115Z AUTO 21009G16KT 10SM CLR 27/22 A3006 RMK AO2 T02740218